YITT weather

Mitta Mitta Airport
Victoria, Australia

Public forecast

Using degrees Celsius for public forecast. Weather courtesy of forecast.io.

METAR (pilot weather report)

Closest report is Albury Airport, 33.1 nm (61.3 km) NW. Retrieved 2019/03/25 05:00 UTC (60 minutes ago):

YMAY 250500Z AUTO 26016KT 9999 // BKN054 BKN065 19/07 Q1010

TAF (pilot weather forecast)

Closest forecast is Wangaratta Airport, 51.1 nm (94.7 km) W. Retrieved 2019/03/25 02:03 UTC (4 hours ago):

TAF YWGT 250023Z 2502/2514 28017G32KT CAVOK FM250700 27012KT CAVOK